createdAt,value
2018-04-10T00:01:30.254Z,10.38
2018-04-10T00:03:58.628Z,14.00
2018-04-10T00:06:27.075Z,18.60
2018-04-10T00:08:55.467Z,17.62
2018-04-10T00:11:23.850Z,9.45
2018-04-10T00:13:52.268Z,8.73
2018-04-10T00:16:21.424Z,13.07
2018-04-10T00:18:49.816Z,8.40
2018-04-10T00:21:18.269Z,13.27
2018-04-10T00:23:46.663Z,9.77
2018-04-10T00:26:15.473Z,8.90
2018-04-10T00:28:43.895Z,8.85
2018-04-10T00:31:12.280Z,10.85
2018-04-10T00:33:40.664Z,18.17
2018-04-10T00:36:09.078Z,14.52
2018-04-10T00:38:37.464Z,14.68
2018-04-10T00:41:05.845Z,11.12
2018-04-10T00:43:34.269Z,10.15
2018-04-10T00:46:02.682Z,15.10
2018-04-10T00:48:31.064Z,11.68
2018-04-10T00:50:59.484Z,10.15
2018-04-10T00:53:38.787Z,8.77
2018-04-10T00:56:07.209Z,13.35
2018-04-10T00:58:35.609Z,11.77
2018-04-10T01:01:04.011Z,15.20
2018-04-10T01:03:32.425Z,20.52
2018-04-10T01:06:01.592Z,15.88
2018-04-10T01:08:31.266Z,14.68
2018-04-10T01:11:00.215Z,18.80
2018-04-10T01:13:29.009Z,16.50
2018-04-10T01:15:58.563Z,13.35
2018-04-10T01:18:27.422Z,15.80
2018-04-10T01:20:56.359Z,10.48
2018-04-10T01:23:25.323Z,10.52
2018-04-10T01:25:54.273Z,13.35
2018-04-10T01:28:23.979Z,11.20
2018-04-10T01:30:53.882Z,8.27
2018-04-10T01:33:22.992Z,15.38
2018-04-10T01:35:51.377Z,12.80
2018-04-10T01:38:20.528Z,15.85
2018-04-10T01:40:48.956Z,14.80
2018-04-10T01:43:18.512Z,19.00
2018-04-10T01:45:46.892Z,14.18
2018-04-10T01:48:15.370Z,12.85
2018-04-10T01:50:43.747Z,26.10
2018-04-10T01:53:12.133Z,12.70
2018-04-10T01:55:40.556Z,11.52
2018-04-10T01:58:09.705Z,15.10
2018-04-10T02:00:38.081Z,9.13
2018-04-10T02:03:06.497Z,17.37
2018-04-10T02:05:34.875Z,10.45
2018-04-10T02:08:03.252Z,9.10
2018-04-10T02:10:33.193Z,11.45
2018-04-10T02:13:02.339Z,11.88
2018-04-10T02:15:30.715Z,15.90
2018-04-10T02:17:59.145Z,11.43
2018-04-10T02:20:28.291Z,12.18
2018-04-10T02:22:56.671Z,20.42
2018-04-10T02:25:25.080Z,21.15
2018-04-10T02:27:53.456Z,8.70
2018-04-10T02:30:21.841Z,14.32
2018-04-10T02:32:51.025Z,16.20
2018-04-10T02:35:19.411Z,9.57
2018-04-10T02:37:47.792Z,18.60
2018-04-10T02:40:16.212Z,11.50
2018-04-10T02:42:44.599Z,11.52
2018-04-10T02:45:12.978Z,11.52
2018-04-10T02:47:41.390Z,7.53
2018-04-10T02:50:09.783Z,13.02
2018-04-10T02:52:38.163Z,10.48
2018-04-10T02:55:07.340Z,9.93
2018-04-10T02:57:35.973Z,13.68
2018-04-10T03:00:05.137Z,15.23
2018-04-10T03:02:33.565Z,9.50
2018-04-10T03:05:01.949Z,10.25
2018-04-10T03:07:30.345Z,14.43
2018-04-10T03:09:58.776Z,15.43
2018-04-10T03:12:27.934Z,14.95
2018-04-10T03:14:56.317Z,12.45
2018-04-10T03:17:24.730Z,23.40
2018-04-10T03:19:53.881Z,14.90
2018-04-10T03:22:22.261Z,16.52
2018-04-10T03:24:50.700Z,15.27
2018-04-10T03:27:19.098Z,11.40
2018-04-10T03:29:47.475Z,16.55
2018-04-10T03:32:15.893Z,11.52
2018-04-10T03:34:44.273Z,11.77
2018-04-10T03:37:12.651Z,22.20
2018-04-10T03:39:41.072Z,9.95
2018-04-10T03:42:09.461Z,13.50
2018-04-10T03:44:37.841Z,11.00
2018-04-10T03:47:06.320Z,18.05
2018-04-10T03:49:34.697Z,9.90
2018-04-10T03:52:03.073Z,11.77
2018-04-10T03:54:31.501Z,15.38
2018-04-10T03:56:59.880Z,18.67
2018-04-10T03:59:28.445Z,15.50
2018-04-10T04:01:56.861Z,23.15
2018-04-10T04:04:25.996Z,9.00
2018-04-10T04:06:54.369Z,15.30
2018-04-10T04:09:22.798Z,10.60
2018-04-10T04:11:51.176Z,18.23
2018-04-10T04:14:19.859Z,6.93
2018-04-10T04:17:06.125Z,12.57
2018-04-10T04:19:52.488Z,22.95
2018-04-10T04:22:38.625Z,13.57
2018-04-10T04:25:07.034Z,26.52
2018-04-10T04:27:35.425Z,16.30
2018-04-10T04:30:04.912Z,17.08
2018-04-10T04:32:33.293Z,15.02
2018-04-10T04:35:01.699Z,16.58
2018-04-10T04:37:31.178Z,13.43
2018-04-10T04:39:59.557Z,11.52
2018-04-10T04:42:27.923Z,16.83
2018-04-10T04:44:56.337Z,13.68
2018-04-10T04:47:25.484Z,28.92
2018-04-10T04:49:53.858Z,17.02
2018-04-10T04:52:22.281Z,18.77
2018-04-10T04:54:50.655Z,21.58
2018-04-10T04:57:19.031Z,13.55
2018-04-10T04:59:47.445Z,13.98
2018-04-10T05:02:15.822Z,18.30
2018-04-10T05:04:44.202Z,10.88
2018-04-10T05:07:12.622Z,16.85
2018-04-10T05:09:41.005Z,25.45
2018-04-10T05:12:09.380Z,22.92
2018-04-10T05:14:37.816Z,16.25
2018-04-10T05:17:06.216Z,18.12
2018-04-10T05:19:34.608Z,29.55
2018-04-10T05:22:03.028Z,13.93
2018-04-10T05:24:32.214Z,15.25
2018-04-10T05:27:01.364Z,30.12
2018-04-10T05:29:29.827Z,25.62
2018-04-10T05:31:58.220Z,22.95
2018-04-10T05:34:28.376Z,19.65
2018-04-10T05:36:57.039Z,15.15
2018-04-10T05:39:25.712Z,17.62
2018-04-10T05:41:56.442Z,17.55
2018-04-10T05:44:25.821Z,14.50
2018-04-10T05:46:54.222Z,34.22
2018-04-10T05:49:22.609Z,16.85
2018-04-10T05:51:51.058Z,16.30
2018-04-10T05:54:20.201Z,20.35
2018-04-10T05:56:48.588Z,14.10
2018-04-10T05:59:17.011Z,22.05
2018-04-10T06:01:46.157Z,35.22
2018-04-10T06:04:14.535Z,19.70
2018-04-10T06:06:42.964Z,22.60
2018-04-10T06:09:12.116Z,11.65
2018-04-10T06:11:40.528Z,17.80
2018-04-10T06:14:09.707Z,25.00
2018-04-10T06:16:38.095Z,18.50
2018-04-10T06:19:06.493Z,20.17
2018-04-10T06:21:35.696Z,22.40
2018-04-10T06:24:04.840Z,17.45
2018-04-10T06:26:33.224Z,39.95
2018-04-10T06:29:01.679Z,16.87
2018-04-10T06:31:30.070Z,26.75
2018-04-10T06:33:58.456Z,18.70
2018-04-10T06:36:26.881Z,31.00
2018-04-10T06:38:56.060Z,25.98
2018-04-10T06:41:24.439Z,34.03
2018-04-10T06:43:52.871Z,32.60
2018-04-10T06:46:21.259Z,24.85
2018-04-10T06:48:49.649Z,43.65
2018-04-10T06:51:18.076Z,23.20
2018-04-10T06:53:47.238Z,24.00
2018-04-10T06:56:15.628Z,28.05
2018-04-10T06:58:44.045Z,30.00
2018-04-10T07:01:12.425Z,25.85
2018-04-10T07:03:40.800Z,30.73
2018-04-10T07:06:09.231Z,37.88
2018-04-10T07:08:37.631Z,37.58
2018-04-10T07:11:06.016Z,27.80
2018-04-10T07:13:35.199Z,33.35
2018-04-10T07:16:03.585Z,41.88
2018-04-10T07:18:32.736Z,32.50
2018-04-10T07:21:01.166Z,25.40
2018-04-10T07:23:30.313Z,41.50
2018-04-10T07:25:58.700Z,36.85
2018-04-10T07:28:27.124Z,30.27
2018-04-10T07:30:56.263Z,30.85
2018-04-10T07:33:24.649Z,32.50
2018-04-10T07:35:53.073Z,39.85
2018-04-10T07:38:22.225Z,36.85
2018-04-10T07:40:50.653Z,34.17
2018-04-10T07:43:19.851Z,37.75
2018-04-10T07:45:49.017Z,35.33
2018-04-10T07:48:17.405Z,33.05
2018-04-10T07:50:45.847Z,38.97
2018-04-10T07:53:14.238Z,41.75
2018-04-10T07:55:42.661Z,41.75
2018-04-10T07:58:11.893Z,32.45
2018-04-10T08:00:40.301Z,39.92
2018-04-10T08:03:09.525Z,43.42
2018-04-10T08:05:38.744Z,36.35
2018-04-10T08:08:07.910Z,44.90
2018-04-10T08:10:36.304Z,39.53
2018-04-10T08:13:05.753Z,43.65
2018-04-10T08:15:34.132Z,41.45
2018-04-10T08:18:02.542Z,40.38
2018-04-10T08:20:30.975Z,41.78
2018-04-10T08:22:59.368Z,39.58
2018-04-10T08:25:27.771Z,34.83
2018-04-10T08:27:56.206Z,37.78
2018-04-10T08:30:24.605Z,47.03
2018-04-10T08:32:53.021Z,45.95
2018-04-10T08:35:21.463Z,45.08
2018-04-10T08:37:49.913Z,28.83
2018-04-10T08:40:19.160Z,37.63
2018-04-10T08:42:47.598Z,37.63
2018-04-10T08:45:16.076Z,34.83
2018-04-10T08:47:44.476Z,34.97
2018-04-10T08:50:12.920Z,47.05
2018-04-10T08:52:42.097Z,47.67
2018-04-10T08:55:10.495Z,41.87
2018-04-10T08:57:39.700Z,44.80
2018-04-10T09:00:08.091Z,40.12
2018-04-10T09:02:36.488Z,37.10
2018-04-10T09:05:04.932Z,38.30
2018-04-10T09:07:34.103Z,41.53
2018-04-10T09:10:02.500Z,42.42
2018-04-10T09:12:31.694Z,40.53
2018-04-10T09:15:00.850Z,42.47
2018-04-10T09:17:29.249Z,53.63
2018-04-10T09:19:58.487Z,43.87
2018-04-10T09:22:27.696Z,40.63
2018-04-10T09:24:56.077Z,36.77
2018-04-10T09:27:24.502Z,48.10
2018-04-10T09:29:52.884Z,41.83
2018-04-10T09:32:21.274Z,42.37
2018-04-10T09:34:49.729Z,46.08
2018-04-10T09:37:18.139Z,48.07
2018-04-10T09:39:46.524Z,40.30
2018-04-10T09:42:15.732Z,51.80
2018-04-10T09:44:44.981Z,44.47
2018-04-10T09:47:13.363Z,37.97
2018-04-10T09:49:41.808Z,45.73
2018-04-10T09:52:10.193Z,38.83
2018-04-10T09:54:38.590Z,35.77
2018-04-10T09:57:07.017Z,43.50
2018-04-10T09:59:35.396Z,56.13
2018-04-10T10:02:04.557Z,43.83
2018-04-10T10:04:33.097Z,42.53
2018-04-10T10:07:02.487Z,42.80
2018-04-10T10:09:31.644Z,36.50
2018-04-10T10:12:00.069Z,43.03
2018-04-10T10:14:28.480Z,48.33
2018-04-10T10:16:56.898Z,44.03
2018-04-10T10:19:25.313Z,48.97
2018-04-10T10:21:53.709Z,50.73
2018-04-10T10:24:22.085Z,45.97
2018-04-10T10:26:50.741Z,41.73
2018-04-10T10:29:19.896Z,43.37
2018-04-10T10:31:48.295Z,61.00
2018-04-10T10:34:16.724Z,42.17
2018-04-10T10:36:45.133Z,43.27
2018-04-10T10:39:13.546Z,46.90
2018-04-10T10:41:42.734Z,44.57
2018-04-10T10:44:11.121Z,39.90
2018-04-10T10:46:40.286Z,50.03
2018-04-10T10:49:08.725Z,42.93
2018-04-10T10:51:37.120Z,33.57
2018-04-10T10:54:05.531Z,37.20
2018-04-10T10:56:33.952Z,40.97
2018-04-10T10:59:02.341Z,59.33
2018-04-10T11:01:30.725Z,56.87
2018-04-10T11:03:59.584Z,48.17
2018-04-10T11:09:01.182Z,35.67
2018-04-10T11:11:29.561Z,40.37
2018-04-10T11:13:57.941Z,42.60
2018-04-10T11:16:26.381Z,37.37
2018-04-10T11:18:54.771Z,41.70
2018-04-10T11:21:23.942Z,34.63
2018-04-10T11:23:52.372Z,51.03
2018-04-10T11:26:20.753Z,35.03
2018-04-10T11:28:49.137Z,43.83
2018-04-10T11:31:17.596Z,37.80
2018-04-10T11:33:46.757Z,32.63
2018-04-10T11:36:15.161Z,45.40
2018-04-10T11:38:44.377Z,36.43
2018-04-10T11:41:12.761Z,38.50
2018-04-10T11:43:41.172Z,44.80
2018-04-10T11:46:09.615Z,40.50
2018-04-10T11:48:38.005Z,41.80
2018-04-10T11:51:06.404Z,40.00
2018-04-10T11:53:34.992Z,46.03
2018-04-10T11:56:03.370Z,37.53
2018-04-10T11:58:31.756Z,45.80
2018-04-10T12:01:00.190Z,42.97
2018-04-10T12:03:28.580Z,41.13
2018-04-10T12:05:57.085Z,41.87
2018-04-10T12:08:26.243Z,39.90
2018-04-10T12:10:54.636Z,33.63
2018-04-10T12:13:23.027Z,46.63
2018-04-10T12:15:51.453Z,46.33
2018-04-10T12:18:19.832Z,41.30
2018-04-10T12:20:48.216Z,44.30
2018-04-10T12:23:16.650Z,43.93
2018-04-10T12:25:45.040Z,46.50
2018-04-10T12:28:13.442Z,37.80
2018-04-10T12:30:41.998Z,33.13
2018-04-10T12:33:10.409Z,85.30
2018-04-10T12:35:38.800Z,59.20
2018-04-10T12:38:08.010Z,51.07
2018-04-10T12:40:37.160Z,39.80
2018-04-10T12:43:07.107Z,37.97
2018-04-10T12:45:36.296Z,40.37
2018-04-10T12:48:04.676Z,42.20
2018-04-10T12:50:33.057Z,64.30
2018-04-10T12:53:02.253Z,37.50
2018-04-10T12:55:30.632Z,37.40
2018-04-10T12:57:59.010Z,39.97
2018-04-10T13:00:27.440Z,43.40
2018-04-10T13:02:55.825Z,40.47
2018-04-10T13:05:24.208Z,43.70
2018-04-10T13:07:52.621Z,39.23
2018-04-10T13:10:21.080Z,43.77
2018-04-10T13:12:49.485Z,33.60
2018-04-10T13:15:17.901Z,40.67
2018-04-10T13:17:46.305Z,37.40
2018-04-10T13:20:14.683Z,44.70
2018-04-10T13:22:43.140Z,40.53
2018-04-10T13:25:11.525Z,49.13
2018-04-10T13:27:40.018Z,45.83
2018-04-10T13:30:08.452Z,38.97
2018-04-10T13:32:37.631Z,38.33
2018-04-10T13:35:06.033Z,47.33
2018-04-10T13:37:35.224Z,40.87
2018-04-10T13:40:04.401Z,36.73
2018-04-10T13:42:32.804Z,26.83
2018-04-10T13:45:02.152Z,30.93
2018-04-10T13:47:30.615Z,29.17
2018-04-10T13:49:59.002Z,38.40
2018-04-10T13:52:27.412Z,46.03
2018-04-10T13:54:55.800Z,34.60
2018-04-10T13:57:24.196Z,33.73
2018-04-10T13:59:53.545Z,33.97
2018-04-10T14:02:21.929Z,36.47
2018-04-10T14:04:50.346Z,38.03
2018-04-10T14:07:18.774Z,25.47
2018-04-10T14:09:47.161Z,40.70
2018-04-10T14:12:15.541Z,38.30
2018-04-10T14:14:43.976Z,27.60
2018-04-10T14:17:13.133Z,34.83
2018-04-10T14:19:41.512Z,41.20
2018-04-10T14:22:09.933Z,30.30
2018-04-10T14:24:39.088Z,35.67
2018-04-10T14:27:07.497Z,53.27
2018-04-10T14:29:36.692Z,42.97
2018-04-10T14:32:05.844Z,42.57
2018-04-10T14:34:34.237Z,40.87
2018-04-10T14:37:02.760Z,37.27
2018-04-10T14:39:31.170Z,46.73
2018-04-10T14:41:59.549Z,43.07
2018-04-10T14:44:28.014Z,26.57
2018-04-10T14:46:56.421Z,35.47
2018-04-10T14:49:24.809Z,26.57
2018-04-10T14:51:53.250Z,35.90
2018-04-10T14:54:21.657Z,33.77
2018-04-10T14:56:50.037Z,26.30
2018-04-10T14:59:18.461Z,24.90
2018-04-10T15:01:47.608Z,28.40
2018-04-10T15:04:15.990Z,24.93
2018-04-10T15:06:44.414Z,23.40
2018-04-10T15:09:13.569Z,26.03
2018-04-10T15:11:41.956Z,17.93
2018-04-10T15:14:10.633Z,23.47
2018-04-10T15:16:39.028Z,21.10
2018-04-10T15:19:07.437Z,22.70
2018-04-10T15:21:36.629Z,23.47
2018-04-10T15:24:05.784Z,27.63
2018-04-10T15:26:34.229Z,24.40
2018-04-10T15:29:02.656Z,14.13
2018-04-10T15:31:31.092Z,20.43
2018-04-10T15:33:59.505Z,24.37
2018-04-10T15:36:27.932Z,16.53
2018-04-10T15:38:57.083Z,21.50
2018-04-10T15:41:25.492Z,20.23
2018-04-10T15:43:53.910Z,21.03
2018-04-10T15:46:22.441Z,15.60
2018-04-10T15:48:50.828Z,18.97
2018-04-10T15:51:19.276Z,20.57
2018-04-10T15:53:47.668Z,22.10
2018-04-10T15:56:16.084Z,13.03
2018-04-10T15:58:45.290Z,15.93
2018-04-10T16:01:13.673Z,27.80
2018-04-10T16:03:42.165Z,17.00
2018-04-10T16:06:10.585Z,14.63
2018-04-10T16:08:38.981Z,16.10
2018-04-10T16:11:07.409Z,19.13
2018-04-10T16:13:35.840Z,20.23
2018-04-10T16:16:04.216Z,9.10
2018-04-10T16:18:34.408Z,10.47
2018-04-10T16:21:02.845Z,6.50
2018-04-10T16:23:31.372Z,5.83
2018-04-10T16:25:59.760Z,16.73
2018-04-10T16:28:28.168Z,9.07
2018-04-10T16:30:57.330Z,12.50
2018-04-10T16:33:26.067Z,7.07
2018-04-10T16:35:54.499Z,23.80
2018-04-10T16:38:22.896Z,12.90
2018-04-10T16:40:51.290Z,8.20
2018-04-10T16:43:20.481Z,7.90
2018-04-10T16:45:48.856Z,8.60
2018-04-10T16:48:18.047Z,6.37
2018-04-10T16:50:46.464Z,22.80
2018-04-10T16:53:14.865Z,10.80
2018-04-10T16:55:43.248Z,30.80
2018-04-10T16:58:11.669Z,8.30
2018-04-10T17:00:40.214Z,6.63
2018-04-10T17:03:08.828Z,11.00
2018-04-10T17:05:38.756Z,8.60
2018-04-10T17:08:08.068Z,7.33
2018-04-10T17:10:37.256Z,4.50
2018-04-10T17:13:06.440Z,13.87
2018-04-10T17:15:35.668Z,15.70
2018-04-10T17:18:04.312Z,18.13
2018-04-10T17:20:33.183Z,15.10
2018-04-10T17:23:01.968Z,11.27
2018-04-10T17:25:30.376Z,21.37
2018-04-10T17:27:58.795Z,19.40
2018-04-10T17:30:27.179Z,24.33
2018-04-10T17:32:55.579Z,18.67
2018-04-10T17:35:24.040Z,16.30
2018-04-10T17:37:52.443Z,19.37
2018-04-10T17:40:21.128Z,15.33
2018-04-10T17:42:49.814Z,7.40
2018-04-10T17:45:18.215Z,15.77
2018-04-10T17:47:46.600Z,40.93
2018-04-10T17:50:15.153Z,28.03
2018-04-10T17:52:43.646Z,8.97
2018-04-10T17:55:12.093Z,19.47
2018-04-10T17:57:40.846Z,8.05
2018-04-10T18:00:09.587Z,17.87
2018-04-10T18:02:37.992Z,24.43
2018-04-10T18:05:07.604Z,18.53
2018-04-10T18:07:36.776Z,20.87
2018-04-10T18:10:05.760Z,22.00
2018-04-10T18:12:34.335Z,37.27
2018-04-10T18:15:03.813Z,12.53
2018-04-10T18:17:33.141Z,25.23
2018-04-10T18:20:01.545Z,24.77
2018-04-10T18:22:30.270Z,13.43
2018-04-10T18:25:00.967Z,16.35
2018-04-10T18:27:30.527Z,24.03
2018-04-10T18:29:59.113Z,46.67
2018-04-10T18:32:29.522Z,15.77
2018-04-10T18:34:58.634Z,20.83
2018-04-10T18:37:27.442Z,13.10
2018-04-10T18:39:56.089Z,15.43
2018-04-10T18:42:25.198Z,17.40
2018-04-10T18:44:54.485Z,14.00
2018-04-10T18:47:23.240Z,16.53
2018-04-10T18:49:53.300Z,20.80
2018-04-10T18:52:22.388Z,17.85
2018-04-10T18:54:51.395Z,17.08
2018-04-10T18:57:20.192Z,15.32
2018-04-10T18:59:48.657Z,13.50
2018-04-10T19:02:19.577Z,17.30
2018-04-10T19:04:48.418Z,12.18
2018-04-10T19:07:17.414Z,11.40
2018-04-10T19:09:46.322Z,7.87
2018-04-10T19:12:16.283Z,9.05
2018-04-10T19:14:45.468Z,18.62
2018-04-10T19:17:15.508Z,8.82
2018-04-10T19:19:45.844Z,13.73
2018-04-10T19:22:14.643Z,18.10
2018-04-10T19:24:53.337Z,15.55
2018-04-10T19:27:22.580Z,14.60
2018-04-10T19:29:54.561Z,20.35
2018-04-10T19:32:24.300Z,12.25
2018-04-10T19:35:04.603Z,10.77
2018-04-10T19:37:34.236Z,7.60
2018-04-10T19:40:04.836Z,8.77
2018-04-10T19:42:33.308Z,16.00
2018-04-10T19:45:02.060Z,9.55
2018-04-10T19:47:31.761Z,6.22
2018-04-10T19:50:00.664Z,6.25
2018-04-10T19:52:29.588Z,4.93
2018-04-10T19:54:59.207Z,3.40
2018-04-10T19:57:28.800Z,7.55
2018-04-10T19:59:57.795Z,2.90
2018-04-10T20:02:26.206Z,4.32
2018-04-10T20:04:55.600Z,8.15
2018-04-10T20:07:24.465Z,5.68
2018-04-10T20:09:53.601Z,5.55
2018-04-10T20:12:22.926Z,7.12
2018-04-10T20:14:52.440Z,6.35
2018-04-10T20:17:21.153Z,5.57
2018-04-10T20:19:49.617Z,10.40
2018-04-10T20:22:18.582Z,15.35
2018-04-10T20:25:00.931Z,8.27
2018-04-10T20:27:44.986Z,8.07
2018-04-10T20:30:29.578Z,17.52
2018-04-10T20:33:26.816Z,12.95
2018-04-10T20:35:57.714Z,21.27
2018-04-10T20:38:27.413Z,10.00
2018-04-10T20:40:58.913Z,15.90
2018-04-10T20:43:27.760Z,13.73
2018-04-10T20:45:56.788Z,12.30
2018-04-10T20:48:26.715Z,11.32
2018-04-10T20:50:58.033Z,10.80
2018-04-10T20:53:28.191Z,10.20
2018-04-10T20:55:57.268Z,11.85
2018-04-10T20:58:26.011Z,14.27
2018-04-10T21:00:54.661Z,12.50
2018-04-10T21:03:24.029Z,9.35
2018-04-10T21:05:53.427Z,12.45
2018-04-10T21:08:21.933Z,14.98
2018-04-10T21:10:50.333Z,11.88
2018-04-10T21:13:19.529Z,6.72
2018-04-10T21:15:48.682Z,7.78
2018-04-10T21:18:17.500Z,15.73
2018-04-10T21:20:46.124Z,17.33
2018-04-10T21:23:14.844Z,16.75
2018-04-10T21:25:43.281Z,10.50
2018-04-10T21:28:14.238Z,11.25
2018-04-10T21:30:42.875Z,13.62
2018-04-10T21:33:11.255Z,7.28
2018-04-10T21:35:39.676Z,8.45
2018-04-10T21:38:08.059Z,13.07
2018-04-10T21:40:36.459Z,20.45
2018-04-10T21:43:10.348Z,12.32
2018-04-10T21:45:38.722Z,9.52
2018-04-10T21:48:07.132Z,10.25
2018-04-10T21:50:35.511Z,17.98
2018-04-10T21:53:03.928Z,11.90
2018-04-10T21:55:33.094Z,10.30
2018-04-10T21:58:01.548Z,12.00
2018-04-10T22:00:29.944Z,11.98
2018-04-10T22:02:58.322Z,13.15
2018-04-10T22:05:26.723Z,13.32
2018-04-10T22:07:55.171Z,10.23
2018-04-10T22:10:23.756Z,13.80
2018-04-10T22:12:52.136Z,10.35
2018-04-10T22:15:20.534Z,13.32
2018-04-10T22:17:48.950Z,13.62
2018-04-10T22:20:18.089Z,9.50
2018-04-10T22:22:46.494Z,13.55
2018-04-10T22:25:14.944Z,17.50
2018-04-10T22:27:43.399Z,12.60
2018-04-10T22:30:20.516Z,37.08
2018-04-10T22:32:49.357Z,10.65
2018-04-10T22:35:18.627Z,10.98
2018-04-10T22:37:55.204Z,12.90
2018-04-10T22:40:31.600Z,17.40
2018-04-10T22:43:02.277Z,13.55
2018-04-10T22:45:48.343Z,16.95
2018-04-10T22:48:23.629Z,14.27
2018-04-10T22:51:08.713Z,20.08
2018-04-10T22:53:49.917Z,20.42
2018-04-10T22:56:26.283Z,14.95
2018-04-10T22:59:12.574Z,22.35
2018-04-10T23:01:51.341Z,14.25
2018-04-10T23:04:21.777Z,20.65
2018-04-10T23:06:50.216Z,18.87
2018-04-10T23:09:18.640Z,15.93
2018-04-10T23:11:58.458Z,18.20
2018-04-10T23:14:26.860Z,16.05
2018-04-10T23:16:55.269Z,17.08
2018-04-10T23:19:24.428Z,17.75
2018-04-10T23:21:54.059Z,15.68
2018-04-10T23:24:22.509Z,14.43
2018-04-10T23:26:51.412Z,20.33
2018-04-10T23:29:22.250Z,14.27
2018-04-10T23:31:50.642Z,20.17
2018-04-10T23:34:19.745Z,20.25
2018-04-10T23:36:48.229Z,17.25
2018-04-10T23:39:16.653Z,16.48
2018-04-10T23:41:45.044Z,18.33
2018-04-10T23:44:13.449Z,16.42
2018-04-10T23:46:41.877Z,19.77
2018-04-10T23:49:10.288Z,30.83
2018-04-10T23:51:38.697Z,15.57
2018-04-10T23:54:07.085Z,20.25
2018-04-10T23:56:35.641Z,20.77
2018-04-10T23:59:04.035Z,16.77
